createdAt,value
2023-05-24T00:01:57.587Z,13.73
2023-05-24T00:04:30.461Z,13.79
2023-05-24T00:06:58.242Z,13.81
2023-05-24T00:09:24.970Z,13.83
2023-05-24T00:11:51.628Z,13.77
2023-05-24T00:14:18.473Z,13.81
2023-05-24T00:16:46.801Z,13.71
2023-05-24T00:19:18.328Z,13.72
2023-05-24T00:21:46.066Z,13.76
2023-05-24T00:24:13.113Z,13.72
2023-05-24T00:26:39.950Z,13.62
2023-05-24T00:29:06.942Z,13.41
2023-05-24T00:31:33.821Z,13.32
2023-05-24T00:34:00.587Z,13.22
2023-05-24T00:36:27.243Z,13.14
2023-05-24T00:38:54.073Z,13.04
2023-05-24T00:41:20.800Z,12.91
2023-05-24T00:43:47.422Z,12.92
2023-05-24T00:46:26.036Z,12.96
2023-05-24T00:48:53.078Z,12.84
2023-05-24T00:51:20.006Z,12.69
2023-05-24T00:53:48.888Z,12.86
2023-05-24T00:56:16.868Z,12.81
2023-05-24T00:58:44.301Z,12.87
2023-05-24T01:01:11.009Z,12.85
2023-05-24T01:03:37.999Z,12.96
2023-05-24T01:06:07.991Z,12.92
2023-05-24T01:08:42.531Z,13.00
2023-05-24T01:11:42.001Z,12.99
2023-05-24T01:14:28.272Z,12.98
2023-05-24T01:17:03.814Z,13.03
2023-05-24T01:19:51.270Z,13.06
2023-05-24T01:22:39.954Z,13.04
2023-05-24T01:25:34.448Z,12.97
2023-05-24T01:28:04.350Z,13.00
2023-05-24T01:30:31.226Z,13.04
2023-05-24T01:32:58.136Z,13.04
2023-05-24T01:35:25.103Z,12.88
2023-05-24T01:37:51.775Z,12.94
2023-05-24T01:40:18.772Z,12.85
2023-05-24T01:43:04.023Z,12.93
2023-05-24T01:45:55.220Z,12.96
2023-05-24T01:48:58.773Z,12.89
2023-05-24T01:51:30.446Z,12.82
2023-05-24T01:53:59.275Z,12.71
2023-05-24T01:56:28.064Z,12.67
2023-05-24T01:58:55.550Z,12.65
2023-05-24T02:01:22.842Z,12.62
2023-05-24T02:03:50.538Z,12.58
2023-05-24T02:06:17.242Z,12.54
2023-05-24T02:08:44.085Z,12.47
2023-05-24T02:11:10.728Z,12.45
2023-05-24T02:13:37.365Z,12.43
2023-05-24T02:16:05.287Z,12.45
2023-05-24T02:18:34.923Z,12.48
2023-05-24T02:21:02.843Z,12.52
2023-05-24T02:23:29.682Z,12.45
2023-05-24T02:25:56.671Z,12.44
2023-05-24T02:28:23.472Z,12.38
2023-05-24T02:30:50.162Z,12.50
2023-05-24T02:33:17.005Z,12.46
2023-05-24T02:35:43.680Z,12.39
2023-05-24T02:38:10.360Z,12.41
2023-05-24T02:40:37.046Z,12.37
2023-05-24T02:43:03.701Z,12.31
2023-05-24T02:45:30.458Z,12.20
2023-05-24T02:47:57.178Z,12.11
2023-05-24T02:50:23.895Z,11.98
2023-05-24T02:52:50.510Z,11.98
2023-05-24T02:55:17.164Z,11.90
2023-05-24T02:57:43.804Z,11.90
2023-05-24T03:00:11.799Z,11.85
2023-05-24T03:02:38.555Z,11.91
2023-05-24T03:05:06.050Z,11.93
2023-05-24T03:07:32.805Z,11.90
2023-05-24T03:09:59.554Z,11.92
2023-05-24T03:12:26.334Z,11.97
2023-05-24T03:14:52.994Z,11.97
2023-05-24T03:17:19.798Z,12.00
2023-05-24T03:19:46.452Z,12.04
2023-05-24T03:22:13.144Z,12.05
2023-05-24T03:24:40.238Z,12.06
2023-05-24T03:27:07.127Z,11.99
2023-05-24T03:29:33.785Z,11.99
2023-05-24T03:32:00.684Z,12.02
2023-05-24T03:34:27.413Z,12.05
2023-05-24T03:36:54.108Z,11.98
2023-05-24T03:39:20.726Z,12.07
2023-05-24T03:41:47.373Z,12.09
2023-05-24T03:44:14.045Z,12.13
2023-05-24T03:46:41.004Z,12.16
2023-05-24T03:49:07.961Z,12.08
2023-05-24T03:51:34.671Z,12.09
2023-05-24T03:54:01.324Z,12.11
2023-05-24T03:56:28.027Z,12.08
2023-05-24T03:58:54.797Z,11.97
2023-05-24T04:01:32.728Z,12.09
2023-05-24T04:04:01.774Z,11.95
2023-05-24T04:06:29.464Z,11.99
2023-05-24T04:08:58.069Z,11.95
2023-05-24T04:11:28.520Z,12.07
2023-05-24T04:14:00.661Z,12.05
2023-05-24T04:16:28.642Z,11.97
2023-05-24T04:18:56.482Z,11.97
2023-05-24T04:21:23.938Z,12.00
2023-05-24T04:23:50.662Z,12.13
2023-05-24T04:26:17.904Z,12.23
2023-05-24T04:28:45.736Z,12.28
2023-05-24T04:31:12.638Z,12.21
2023-05-24T04:33:39.759Z,12.36
2023-05-24T04:36:08.495Z,12.46
2023-05-24T04:38:36.318Z,12.56
2023-05-24T04:41:03.256Z,12.67
2023-05-24T04:43:29.910Z,12.77
2023-05-24T04:45:56.744Z,12.83
2023-05-24T04:48:24.749Z,12.86
2023-05-24T04:50:56.074Z,12.98
2023-05-24T04:53:23.872Z,13.09
2023-05-24T04:55:51.216Z,13.12
2023-05-24T04:58:18.155Z,13.20
2023-05-24T05:00:45.474Z,13.34
2023-05-24T05:03:12.318Z,13.40
2023-05-24T05:05:39.132Z,13.41
2023-05-24T05:08:06.755Z,13.63
2023-05-24T05:10:33.661Z,13.73
2023-05-24T05:13:00.347Z,13.87
2023-05-24T05:15:27.194Z,13.89
2023-05-24T05:17:53.980Z,13.99
2023-05-24T05:20:20.792Z,13.97
2023-05-24T05:22:48.816Z,14.08
2023-05-24T05:25:15.794Z,14.18
2023-05-24T05:27:42.527Z,14.18
2023-05-24T05:30:09.834Z,14.30
2023-05-24T05:32:36.688Z,14.31
2023-05-24T05:35:04.194Z,14.37
2023-05-24T05:37:31.338Z,14.62
2023-05-24T05:39:58.215Z,15.12
2023-05-24T05:42:25.167Z,15.39
2023-05-24T05:44:52.794Z,16.12
2023-05-24T05:47:19.604Z,16.86
2023-05-24T05:49:46.316Z,17.42
2023-05-24T05:52:13.073Z,18.07
2023-05-24T05:54:39.773Z,18.54
2023-05-24T05:57:08.339Z,19.18
2023-05-24T05:59:36.442Z,19.60
2023-05-24T06:02:06.913Z,19.51
2023-05-24T06:04:34.157Z,19.23
2023-05-24T06:07:01.015Z,19.35
2023-05-24T06:09:27.694Z,19.85
2023-05-24T06:11:54.522Z,20.25
2023-05-24T06:14:25.333Z,20.51
2023-05-24T06:16:54.629Z,20.48
2023-05-24T06:19:21.895Z,20.08
2023-05-24T06:21:49.661Z,20.38
2023-05-24T06:24:21.485Z,20.83
2023-05-24T06:26:51.355Z,21.06
2023-05-24T06:29:20.676Z,21.16
2023-05-24T06:31:48.347Z,21.23
2023-05-24T06:34:18.990Z,22.06
2023-05-24T06:36:47.452Z,22.12
2023-05-24T06:39:15.150Z,21.80
2023-05-24T06:41:43.324Z,21.68
2023-05-24T06:44:10.498Z,21.53
2023-05-24T06:46:37.071Z,22.04
2023-05-24T06:49:03.920Z,22.25
2023-05-24T06:51:31.076Z,22.44
2023-05-24T06:53:57.997Z,21.99
2023-05-24T06:56:25.478Z,21.53
2023-05-24T06:58:52.174Z,21.84
2023-05-24T07:01:18.917Z,22.55
2023-05-24T07:03:46.123Z,23.18
2023-05-24T07:06:14.238Z,23.58
2023-05-24T07:08:42.035Z,24.30
2023-05-24T07:11:09.961Z,24.66
2023-05-24T07:13:36.683Z,24.50
2023-05-24T07:16:03.518Z,24.02
2023-05-24T07:18:30.747Z,23.89
2023-05-24T07:20:57.349Z,23.20
2023-05-24T07:23:24.025Z,23.31
2023-05-24T07:25:50.949Z,23.58
2023-05-24T07:28:20.274Z,23.70
2023-05-24T07:30:47.202Z,23.93
2023-05-24T07:33:14.183Z,23.42
2023-05-24T07:35:41.939Z,22.95
2023-05-24T07:38:08.975Z,23.09
2023-05-24T07:40:35.752Z,23.28
2023-05-24T07:43:04.071Z,23.30
2023-05-24T07:45:31.862Z,23.24
2023-05-24T07:47:58.835Z,23.25
2023-05-24T07:50:26.639Z,23.27
2023-05-24T07:52:53.497Z,23.25
2023-05-24T07:55:20.266Z,23.25
2023-05-24T07:57:47.599Z,23.45
2023-05-24T08:00:15.173Z,23.58
2023-05-24T08:02:46.762Z,23.80
2023-05-24T08:05:14.276Z,23.98
2023-05-24T08:07:42.067Z,23.72
2023-05-24T08:10:15.443Z,23.62
2023-05-24T08:12:42.961Z,23.76
2023-05-24T08:15:10.367Z,23.92
2023-05-24T08:17:39.500Z,23.95
2023-05-24T08:20:08.655Z,24.01
2023-05-24T08:22:37.011Z,24.07
2023-05-24T08:25:03.857Z,24.13
2023-05-24T08:27:30.733Z,23.85
2023-05-24T08:29:57.396Z,23.83
2023-05-24T08:32:24.105Z,23.91
2023-05-24T08:34:51.153Z,23.97
2023-05-24T08:37:20.657Z,23.86
2023-05-24T08:39:47.388Z,23.89
2023-05-24T08:42:15.602Z,24.05
2023-05-24T08:45:09.254Z,24.12
2023-05-24T08:47:37.275Z,24.14
2023-05-24T08:50:05.451Z,24.15
2023-05-24T08:52:32.593Z,24.00
2023-05-24T08:54:59.919Z,24.06
2023-05-24T08:57:27.650Z,24.12
2023-05-24T08:59:57.371Z,24.30
2023-05-24T09:02:24.558Z,24.44
2023-05-24T09:04:52.879Z,24.44
2023-05-24T09:07:23.702Z,24.53
2023-05-24T09:09:57.543Z,24.63
2023-05-24T09:12:36.639Z,24.84
2023-05-24T09:15:06.335Z,24.89
2023-05-24T09:17:34.489Z,25.00
2023-05-24T09:20:01.530Z,25.20
2023-05-24T09:22:30.823Z,25.39
2023-05-24T09:25:00.677Z,25.63
2023-05-24T09:27:27.896Z,25.88
2023-05-24T09:29:55.810Z,26.15
2023-05-24T09:32:26.165Z,26.20
2023-05-24T09:34:54.227Z,25.90
2023-05-24T09:37:28.151Z,25.72
2023-05-24T09:39:58.478Z,25.60
2023-05-24T09:42:28.405Z,25.52
2023-05-24T09:45:06.957Z,25.74
2023-05-24T09:47:35.615Z,25.66
2023-05-24T09:50:04.105Z,25.63
2023-05-24T09:52:32.109Z,25.68
2023-05-24T09:55:00.234Z,25.76
2023-05-24T09:57:28.320Z,25.80
2023-05-24T09:59:55.157Z,25.82
2023-05-24T10:02:23.966Z,25.95
2023-05-24T10:05:00.360Z,26.01
2023-05-24T10:07:27.468Z,26.07
2023-05-24T10:09:54.278Z,26.10
2023-05-24T10:12:23.322Z,26.03
2023-05-24T10:14:52.104Z,26.19
2023-05-24T10:17:18.778Z,26.31
2023-05-24T10:19:46.356Z,26.31
2023-05-24T10:22:16.002Z,26.27
2023-05-24T10:24:47.760Z,26.54
2023-05-24T10:27:18.504Z,26.48
2023-05-24T10:30:11.370Z,26.38
2023-05-24T10:32:42.322Z,26.44
2023-05-24T10:35:12.638Z,26.27
2023-05-24T10:37:39.574Z,26.42
2023-05-24T10:40:10.057Z,26.50
2023-05-24T10:42:39.101Z,26.54
2023-05-24T10:45:27.565Z,26.59
2023-05-24T10:47:54.743Z,26.48
2023-05-24T10:50:22.451Z,26.77
2023-05-24T10:52:49.507Z,26.91
2023-05-24T10:55:19.229Z,27.03
2023-05-24T10:57:45.961Z,26.91
2023-05-24T11:00:34.778Z,26.95
2023-05-24T11:03:06.835Z,27.10
2023-05-24T11:05:47.032Z,27.42
2023-05-24T11:08:13.773Z,27.53
2023-05-24T11:10:44.419Z,27.42
2023-05-24T11:13:11.801Z,27.37
2023-05-24T11:15:38.350Z,27.34
2023-05-24T11:18:13.851Z,27.30
2023-05-24T11:20:48.338Z,27.29
2023-05-24T11:23:16.427Z,27.29
2023-05-24T11:25:43.323Z,27.25
2023-05-24T11:28:12.475Z,27.24
2023-05-24T11:30:44.025Z,27.31
2023-05-24T11:33:18.930Z,27.39
2023-05-24T11:35:52.516Z,27.38
2023-05-24T11:38:24.193Z,27.41
2023-05-24T11:40:51.654Z,27.46
2023-05-24T11:43:22.150Z,27.63
2023-05-24T11:45:50.222Z,27.68
2023-05-24T11:48:18.598Z,27.57
2023-05-24T11:50:50.537Z,27.70
2023-05-24T11:53:19.897Z,27.43
2023-05-24T11:55:46.674Z,27.27
2023-05-24T11:58:49.647Z,27.17
2023-05-24T12:01:27.591Z,27.27
2023-05-24T12:03:55.248Z,27.43
2023-05-24T12:06:22.954Z,27.51
2023-05-24T12:08:50.277Z,27.51
2023-05-24T12:11:17.377Z,27.48
2023-05-24T12:13:44.392Z,27.39
2023-05-24T12:16:13.255Z,27.38
2023-05-24T12:18:45.777Z,27.40
2023-05-24T12:21:20.537Z,27.33
2023-05-24T12:23:48.316Z,27.45
2023-05-24T12:26:20.534Z,27.56
2023-05-24T12:28:52.845Z,27.57
2023-05-24T12:31:19.813Z,27.65
2023-05-24T12:33:47.444Z,27.69
2023-05-24T12:36:14.262Z,27.58
2023-05-24T12:38:40.896Z,27.65
2023-05-24T12:41:13.431Z,27.54
2023-05-24T12:43:44.514Z,27.41
2023-05-24T12:46:11.468Z,27.46
2023-05-24T12:48:38.199Z,27.51
2023-05-24T12:51:04.919Z,27.57
2023-05-24T12:53:31.601Z,27.55
2023-05-24T12:56:00.577Z,27.56
2023-05-24T12:58:27.498Z,27.48
2023-05-24T13:00:54.483Z,27.37
2023-05-24T13:03:21.483Z,27.16
2023-05-24T13:05:48.241Z,27.27
2023-05-24T13:08:14.991Z,27.21
2023-05-24T13:10:41.959Z,27.36
2023-05-24T13:13:08.906Z,27.45
2023-05-24T13:15:36.322Z,27.63
2023-05-24T13:18:03.074Z,27.62
2023-05-24T13:20:29.970Z,27.74
2023-05-24T13:22:56.889Z,27.98
2023-05-24T13:25:23.818Z,28.04
2023-05-24T13:27:50.642Z,28.09
2023-05-24T13:30:17.569Z,27.99
2023-05-24T13:32:44.396Z,27.90
2023-05-24T13:35:11.424Z,27.94
2023-05-24T13:37:38.216Z,28.00
2023-05-24T13:40:06.201Z,27.90
2023-05-24T13:42:33.115Z,27.84
2023-05-24T13:44:59.958Z,27.80
2023-05-24T13:47:35.839Z,27.88
2023-05-24T13:50:06.181Z,27.69
2023-05-24T13:52:32.979Z,27.68
2023-05-24T13:54:59.719Z,27.72
2023-05-24T13:57:33.696Z,27.85
2023-05-24T14:00:10.733Z,28.01
2023-05-24T14:02:38.792Z,27.90
2023-05-24T14:05:25.006Z,27.67
2023-05-24T14:07:52.274Z,27.38
2023-05-24T14:10:21.262Z,27.05
2023-05-24T14:12:59.591Z,27.04
2023-05-24T14:15:30.779Z,26.62
2023-05-24T14:17:58.916Z,26.56
2023-05-24T14:20:25.695Z,26.53
2023-05-24T14:22:52.675Z,26.41
2023-05-24T14:25:19.435Z,26.43
2023-05-24T14:27:46.424Z,26.41
2023-05-24T14:30:13.324Z,26.31
2023-05-24T14:32:40.125Z,26.16
2023-05-24T14:35:07.039Z,26.23
2023-05-24T14:37:33.730Z,26.15
2023-05-24T14:40:00.847Z,26.28
2023-05-24T14:42:27.416Z,26.32
2023-05-24T14:44:54.064Z,26.39
2023-05-24T14:47:20.994Z,26.36
2023-05-24T14:49:47.715Z,26.26
2023-05-24T14:52:14.414Z,26.24
2023-05-24T14:54:41.133Z,26.03
2023-05-24T14:57:08.209Z,25.89
2023-05-24T14:59:35.025Z,25.73
2023-05-24T15:02:01.804Z,25.77
2023-05-24T15:04:28.465Z,25.66
2023-05-24T15:06:55.678Z,25.61
2023-05-24T15:09:22.342Z,25.69
2023-05-24T15:11:48.968Z,25.78
2023-05-24T15:14:15.736Z,25.80
2023-05-24T15:16:42.475Z,25.80
2023-05-24T15:19:10.091Z,25.77
2023-05-24T15:21:39.708Z,25.78
2023-05-24T15:24:06.763Z,25.79
2023-05-24T15:26:34.252Z,25.87
2023-05-24T15:29:03.922Z,25.90
2023-05-24T15:31:30.610Z,25.82
2023-05-24T15:33:57.560Z,25.77
2023-05-24T15:36:24.263Z,25.70
2023-05-24T15:38:50.876Z,25.67
2023-05-24T15:41:17.685Z,25.73
2023-05-24T15:43:44.667Z,25.85
2023-05-24T15:46:11.386Z,25.87
2023-05-24T15:48:39.160Z,25.86
2023-05-24T15:53:37.364Z,25.77
2023-05-24T15:56:04.171Z,25.76
2023-05-24T15:58:31.046Z,25.60
2023-05-24T16:00:57.803Z,25.50
2023-05-24T16:03:24.674Z,25.43
2023-05-24T16:05:51.662Z,25.45
2023-05-24T16:08:18.620Z,25.43
2023-05-24T16:10:45.829Z,25.39
2023-05-24T16:13:12.578Z,25.28
2023-05-24T16:15:41.855Z,25.19
2023-05-24T16:18:08.790Z,25.12
2023-05-24T16:20:35.520Z,24.98
2023-05-24T16:23:03.740Z,24.84
2023-05-24T16:25:30.442Z,24.63
2023-05-24T16:27:57.190Z,24.54
2023-05-24T16:30:24.097Z,24.46
2023-05-24T16:32:50.992Z,24.49
2023-05-24T16:35:17.674Z,24.52
2023-05-24T16:37:44.312Z,24.58
2023-05-24T16:40:11.894Z,24.54
2023-05-24T16:42:38.609Z,24.46
2023-05-24T16:45:06.095Z,24.28
2023-05-24T16:47:33.030Z,24.29
2023-05-24T16:49:59.852Z,24.22
2023-05-24T16:52:26.550Z,24.22
2023-05-24T16:54:53.195Z,24.10
2023-05-24T16:57:19.820Z,24.02
2023-05-24T16:59:50.609Z,23.87
2023-05-24T17:02:17.564Z,23.78
2023-05-24T17:04:44.487Z,23.69
2023-05-24T17:07:11.132Z,23.60
2023-05-24T17:09:38.140Z,23.61
2023-05-24T17:12:04.995Z,23.56
2023-05-24T17:14:31.808Z,23.56
2023-05-24T17:16:58.515Z,23.54
2023-05-24T17:19:25.309Z,23.37
2023-05-24T17:21:52.129Z,23.11
2023-05-24T17:24:18.774Z,22.91
2023-05-24T17:26:45.601Z,22.98
2023-05-24T17:29:12.592Z,22.99
2023-05-24T17:31:39.746Z,23.01
2023-05-24T17:34:06.429Z,22.94
2023-05-24T17:36:33.790Z,22.95
2023-05-24T17:39:00.493Z,23.02
2023-05-24T17:41:27.092Z,23.13
2023-05-24T17:43:53.799Z,23.00
2023-05-24T17:46:20.696Z,22.86
2023-05-24T17:48:48.254Z,22.66
2023-05-24T17:51:15.236Z,22.56
2023-05-24T17:53:43.593Z,22.57
2023-05-24T17:56:10.383Z,22.49
2023-05-24T17:58:37.683Z,22.46
2023-05-24T18:01:05.731Z,22.55
2023-05-24T18:03:37.408Z,22.62
2023-05-24T18:06:06.774Z,22.57
2023-05-24T18:08:35.318Z,22.57
2023-05-24T18:11:07.944Z,22.52
2023-05-24T18:13:35.248Z,22.37
2023-05-24T18:16:02.373Z,22.24
2023-05-24T18:18:29.806Z,22.18
2023-05-24T18:20:56.444Z,22.14
2023-05-24T18:23:23.066Z,22.11
2023-05-24T18:25:49.814Z,22.04
2023-05-24T18:28:16.508Z,22.04
2023-05-24T18:30:43.174Z,22.08
2023-05-24T18:33:10.027Z,22.16
2023-05-24T18:35:36.866Z,22.07
2023-05-24T18:38:04.480Z,21.98
2023-05-24T18:40:31.184Z,21.99
2023-05-24T18:42:57.836Z,21.91
2023-05-24T18:45:24.451Z,21.78
2023-05-24T18:47:51.166Z,21.70
2023-05-24T18:50:23.281Z,21.67
2023-05-24T18:52:50.438Z,21.59
2023-05-24T18:55:17.231Z,21.52
2023-05-24T18:57:43.964Z,21.45
2023-05-24T19:00:11.828Z,21.28
2023-05-24T19:02:39.702Z,21.19
2023-05-24T19:05:07.685Z,21.09
2023-05-24T19:07:35.569Z,21.08
2023-05-24T19:10:02.647Z,21.08
2023-05-24T19:12:30.207Z,21.09
2023-05-24T19:14:57.251Z,21.11
2023-05-24T19:17:25.083Z,21.19
2023-05-24T19:19:52.296Z,21.00
2023-05-24T19:22:19.205Z,21.01
2023-05-24T19:24:46.084Z,20.94
2023-05-24T19:27:12.955Z,20.94
2023-05-24T19:29:40.161Z,20.93
2023-05-24T19:32:07.333Z,20.88
2023-05-24T19:34:35.425Z,20.72
2023-05-24T19:37:03.364Z,20.65
2023-05-24T19:39:30.174Z,20.62
2023-05-24T19:41:56.857Z,20.65
2023-05-24T19:44:23.534Z,20.64
2023-05-24T19:46:50.293Z,20.55
2023-05-24T19:49:16.949Z,20.46
2023-05-24T19:51:43.620Z,20.34
2023-05-24T19:54:11.217Z,20.23
2023-05-24T19:56:37.945Z,20.10
2023-05-24T19:59:04.634Z,20.04
2023-05-24T20:01:31.651Z,20.12
2023-05-24T20:03:58.574Z,20.12
2023-05-24T20:06:26.434Z,20.06
2023-05-24T20:08:53.414Z,19.86
2023-05-24T20:11:20.371Z,19.77
2023-05-24T20:13:47.076Z,19.79
2023-05-24T20:16:13.850Z,19.76
2023-05-24T20:18:40.895Z,19.65
2023-05-24T20:21:07.597Z,19.74
2023-05-24T20:23:34.239Z,19.71
2023-05-24T20:26:01.006Z,19.74
2023-05-24T20:28:31.609Z,19.69
2023-05-24T20:30:59.285Z,19.64
2023-05-24T20:33:25.821Z,19.65
2023-05-24T20:35:54.103Z,19.69
2023-05-24T20:38:20.827Z,19.67
2023-05-24T20:40:47.559Z,19.56
2023-05-24T20:43:14.224Z,19.42
2023-05-24T20:45:41.019Z,19.29
2023-05-24T20:48:07.852Z,18.98
2023-05-24T20:50:34.541Z,18.88
2023-05-24T20:53:01.405Z,18.82
2023-05-24T20:55:28.068Z,18.82
2023-05-24T20:57:54.758Z,18.74
2023-05-24T21:00:21.713Z,18.67
2023-05-24T21:02:48.421Z,18.68
2023-05-24T21:05:15.466Z,18.63
2023-05-24T21:07:42.160Z,18.63
2023-05-24T21:10:09.502Z,18.69
2023-05-24T21:12:35.988Z,18.71
2023-05-24T21:15:02.627Z,18.68
2023-05-24T21:17:29.360Z,18.60
2023-05-24T21:19:56.278Z,18.58
2023-05-24T21:22:23.024Z,18.56
2023-05-24T21:24:50.069Z,18.59
2023-05-24T21:27:18.800Z,18.65
2023-05-24T21:29:45.686Z,18.60
2023-05-24T21:32:12.336Z,18.62
2023-05-24T21:34:39.033Z,18.54
2023-05-24T21:37:05.875Z,18.34
2023-05-24T21:39:33.169Z,18.13
2023-05-24T21:41:59.889Z,18.05
2023-05-24T21:44:26.536Z,17.99
2023-05-24T21:46:53.243Z,18.01
2023-05-24T21:49:21.462Z,18.03
2023-05-24T21:51:48.221Z,17.93
2023-05-24T21:54:15.158Z,17.73
2023-05-24T21:56:41.853Z,17.81
2023-05-24T21:59:08.539Z,17.78
2023-05-24T22:01:35.304Z,17.70
2023-05-24T22:04:01.994Z,17.62
2023-05-24T22:06:28.736Z,17.72
2023-05-24T22:08:57.901Z,17.77
2023-05-24T22:11:24.552Z,17.75
2023-05-24T22:13:51.575Z,17.78
2023-05-24T22:16:18.325Z,17.80
2023-05-24T22:18:45.095Z,17.88
2023-05-24T22:21:14.481Z,17.92
2023-05-24T22:23:41.382Z,17.91
2023-05-24T22:26:07.997Z,17.88
2023-05-24T22:28:54.950Z,17.86
2023-05-24T22:31:21.773Z,17.83
2023-05-24T22:33:49.533Z,17.72
2023-05-24T22:36:16.153Z,17.60
2023-05-24T22:38:42.911Z,17.49
2023-05-24T22:41:09.774Z,17.42
2023-05-24T22:43:36.536Z,17.41
2023-05-24T22:46:03.233Z,17.42
2023-05-24T22:48:34.028Z,17.42
2023-05-24T22:51:00.994Z,17.39
2023-05-24T22:53:28.487Z,17.33
2023-05-24T22:55:55.175Z,17.08
2023-05-24T22:58:24.136Z,17.04
2023-05-24T23:00:51.809Z,17.02
2023-05-24T23:03:18.505Z,17.03
2023-05-24T23:05:45.846Z,16.99
2023-05-24T23:08:15.485Z,16.91
2023-05-24T23:10:45.762Z,16.95
2023-05-24T23:13:13.749Z,16.90
2023-05-24T23:15:41.096Z,16.92
2023-05-24T23:18:08.105Z,16.82
2023-05-24T23:20:34.914Z,16.71
2023-05-24T23:23:06.018Z,16.63
2023-05-24T23:25:33.570Z,16.51
2023-05-24T23:28:01.325Z,16.47
2023-05-24T23:30:28.538Z,16.46
2023-05-24T23:32:55.290Z,16.43
2023-05-24T23:35:22.174Z,16.23
2023-05-24T23:37:48.848Z,16.19
2023-05-24T23:40:15.532Z,16.16
2023-05-24T23:42:42.329Z,16.14
2023-05-24T23:45:09.221Z,16.12
2023-05-24T23:47:35.871Z,16.19
2023-05-24T23:50:03.289Z,16.18
2023-05-24T23:52:29.901Z,16.20
2023-05-24T23:54:56.876Z,16.16
2023-05-24T23:57:25.020Z,16.15
2023-05-24T23:59:51.797Z,16.16
